PWSweather.com
Personal Weather Stations
Station Observations
SELKIRK1
Ontario, Selkirk, ON N0A 1P0

OntarioSelkirk, ON N0A 1P0

Lat: 42.8083652, Lon: -79.94971040000001

Elevation: 583

Station Type: Acurite 5 in 1

http://gavinsurf.com

High Low Average
Temperature 72.2°F22.3°C 67.7°F19.8°C 69.0°F20.6°C
Dew Point 71.0°F21.7°C 66.5°F19.2°C 68.4°F20.2°C
Winds 11.5 mph 18.5 kmh Calm Calm 4.0 mph SSE6.4 kmh SSE
Wind Gusts 13.8 mph22.2 kmh -- 4.0 mph6.4 kmh
Humidity 99% 88% 98%
Pressure 31.86 in1078.9 mb 31.86 in1078.9 mb -
Precipitation 0.02 in0.5 mm - -
Hour Temp Dew Point Humidity Winds Wind Gusts Pressure Precip Precip Rate Daily Precip Total
12:00 AM 69.6°F20.9°C 63.5°F17.5°C 81% 2.3 mph NNE3.7 kmh NNE 2.3 mph3.7 kmh 31.86 in1078.9 mb - 0.00 in0.0 mm 0.00 in0.0 mm
12:10 AM 69.8°F21.0°C 63.7°F17.6°C 81% 2.3 mph NE3.7 kmh NE 2.3 mph3.7 kmh 31.86 in1078.9 mb - 0.00 in0.0 mm 0.00 in0.0 mm
12:15 AM 69.8°F21.0°C 63.7°F17.6°C 81% 1.2 mph NNE1.9 kmh NNE 1.2 mph1.9 kmh 31.86 in1078.9 mb - 0.00 in0.0 mm 0.00 in0.0 mm
12:20 AM 69.6°F20.9°C 63.8°F17.7°C 82% 1.2 mph NNE1.9 kmh NNE 2.3 mph3.7 kmh 31.86 in1078.9 mb - 0.00 in0.0 mm 0.00 in0.0 mm
12:25 AM 69.5°F20.8°C 64.1°F17.8°C 83% 2.3 mph NNE3.7 kmh NNE 2.3 mph3.7 kmh 31.86 in1078.9 mb - 0.00 in0.0 mm 0.00 in0.0 mm
12:30 AM 69.5°F20.8°C 64.1°F17.8°C 83% 2.3 mph NE3.7 kmh NE 2.3 mph3.7 kmh 31.86 in1078.9 mb - 0.00 in0.0 mm 0.00 in0.0 mm
12:35 AM 69.6°F20.9°C 64.2°F17.9°C 83% 2.3 mph NNE3.7 kmh NNE 1.2 mph1.9 kmh 31.86 in1078.9 mb - 0.00 in0.0 mm 0.00 in0.0 mm
12:40 AM 69.9°F21.1°C 64.9°F18.3°C 84% 2.3 mph NE3.7 kmh NE 2.3 mph3.7 kmh 31.86 in1078.9 mb - 0.00 in0.0 mm 0.00 in0.0 mm
12:45 AM 70.1°F21.2°C 65.1°F18.4°C 84% 2.3 mph NE3.7 kmh NE 2.3 mph3.7 kmh 31.86 in1078.9 mb - 0.00 in0.0 mm 0.00 in0.0 mm
12:50 AM 70.2°F21.2°C 65.5°F18.6°C 85% 1.2 mph NNE1.9 kmh NNE 1.2 mph1.9 kmh 31.86 in1078.9 mb - 0.00 in0.0 mm 0.00 in0.0 mm
12:55 AM 70.2°F21.2°C 65.8°F18.8°C 86% 1.2 mph NNE1.9 kmh NNE 1.2 mph1.9 kmh 31.86 in1078.9 mb - 0.00 in0.0 mm 0.00 in0.0 mm
01:00 AM 70.2°F21.2°C 66.5°F19.2°C 88% 1.2 mph NNE1.9 kmh NNE 1.2 mph1.9 kmh 31.86 in1078.9 mb - 0.00 in0.0 mm 0.00 in0.0 mm
01:10 AM 70.2°F21.2°C 67.1°F19.5°C 90% 1.2 mph NNE1.9 kmh NNE 1.2 mph1.9 kmh 31.86 in1078.9 mb - 0.00 in0.0 mm 0.00 in0.0 mm
01:15 AM 70.2°F21.2°C 67.4°F19.7°C 91% 1.2 mph NE1.9 kmh NE 1.2 mph1.9 kmh 31.86 in1078.9 mb - 0.00 in0.0 mm 0.00 in0.0 mm
01:20 AM 70.0°F21.1°C 67.5°F19.7°C 92% 1.2 mph NE1.9 kmh NE 2.3 mph3.7 kmh 31.86 in1078.9 mb - 0.00 in0.0 mm 0.00 in0.0 mm
01:25 AM 69.8°F21.0°C 67.7°F19.8°C 93% 1.2 mph NNE1.9 kmh NNE 2.3 mph3.7 kmh 31.86 in1078.9 mb - 0.00 in0.0 mm 0.00 in0.0 mm
01:30 AM 69.8°F21.0°C 67.7°F19.8°C 93% 3.5 mph S5.6 kmh S 4.6 mph7.4 kmh 31.86 in1078.9 mb - 0.00 in0.0 mm 0.00 in0.0 mm
01:35 AM 69.8°F21.0°C 67.4°F19.7°C 92% 2.3 mph S3.7 kmh S 3.5 mph5.6 kmh 31.86 in1078.9 mb - 0.00 in0.0 mm 0.00 in0.0 mm
01:40 AM 69.8°F21.0°C 67.4°F19.7°C 92% 4.6 mph S7.4 kmh S 4.6 mph7.4 kmh 31.86 in1078.9 mb - 0.00 in0.0 mm 0.00 in0.0 mm
01:45 AM 69.6°F20.9°C 67.2°F19.6°C 92% 3.5 mph SSE5.6 kmh SSE 4.6 mph7.4 kmh 31.86 in1078.9 mb - 0.00 in0.0 mm 0.00 in0.0 mm
01:50 AM 69.5°F20.8°C 67.4°F19.7°C 93% 4.6 mph SE7.4 kmh SE 4.6 mph7.4 kmh 31.86 in1078.9 mb - 0.00 in0.0 mm 0.00 in0.0 mm
01:55 AM 69.1°F20.6°C 67.3°F19.6°C 94% 3.5 mph S5.6 kmh S 3.5 mph5.6 kmh 31.86 in1078.9 mb - 0.00 in0.0 mm 0.00 in0.0 mm
02:00 AM 69.1°F20.6°C 67.6°F19.8°C 95% 3.5 mph SE5.6 kmh SE 5.8 mph9.3 kmh 31.86 in1078.9 mb - 0.00 in0.0 mm 0.00 in0.0 mm
02:10 AM 69.1°F20.6°C 67.3°F19.6°C 94% 3.5 mph S5.6 kmh S 4.6 mph7.4 kmh 31.86 in1078.9 mb - 0.00 in0.0 mm 0.00 in0.0 mm
02:15 AM 68.9°F20.5°C 67.4°F19.7°C 95% 2.3 mph ESE3.7 kmh ESE 2.3 mph3.7 kmh 31.86 in1078.9 mb - 0.00 in0.0 mm 0.00 in0.0 mm
02:20 AM 68.7°F20.4°C 67.5°F19.7°C 96% 2.3 mph E3.7 kmh E 4.6 mph7.4 kmh 31.86 in1078.9 mb - 0.00 in0.0 mm 0.00 in0.0 mm
02:25 AM 68.9°F20.5°C 67.1°F19.5°C 94% 3.5 mph SSE5.6 kmh SSE 4.6 mph7.4 kmh 31.86 in1078.9 mb - 0.00 in0.0 mm 0.00 in0.0 mm
02:30 AM 68.9°F20.5°C 67.1°F19.5°C 94% 3.5 mph SSW5.6 kmh SSW 5.8 mph9.3 kmh 31.86 in1078.9 mb - 0.00 in0.0 mm 0.00 in0.0 mm
02:35 AM 69.1°F20.6°C 67.3°F19.6°C 94% 5.8 mph SSW9.3 kmh SSW 6.9 mph11.1 kmh 31.86 in1078.9 mb - 0.00 in0.0 mm 0.00 in0.0 mm
02:40 AM 69.1°F20.6°C 67.3°F19.6°C 94% 5.8 mph S9.3 kmh S 5.8 mph9.3 kmh 31.86 in1078.9 mb - 0.00 in0.0 mm 0.00 in0.0 mm
02:45 AM 69.1°F20.6°C 67.3°F19.6°C 94% 4.6 mph SSE7.4 kmh SSE 4.6 mph7.4 kmh 31.86 in1078.9 mb - 0.00 in0.0 mm 0.00 in0.0 mm
02:50 AM 69.1°F20.6°C 67.3°F19.6°C 94% 3.5 mph SSW5.6 kmh SSW 4.6 mph7.4 kmh 31.86 in1078.9 mb - 0.00 in0.0 mm 0.00 in0.0 mm
02:55 AM 68.9°F20.5°C 67.4°F19.7°C 95% 1.2 mph SSE1.9 kmh SSE 3.5 mph5.6 kmh 31.86 in1078.9 mb - 0.00 in0.0 mm 0.00 in0.0 mm
03:00 AM 68.7°F20.4°C 67.2°F19.6°C 95% 2.3 mph SSE3.7 kmh SSE 3.5 mph5.6 kmh 31.86 in1078.9 mb - 0.00 in0.0 mm 0.00 in0.0 mm
03:10 AM 68.7°F20.4°C 67.2°F19.6°C 95% 2.3 mph S3.7 kmh S 3.5 mph5.6 kmh 31.86 in1078.9 mb - 0.00 in0.0 mm 0.00 in0.0 mm
03:15 AM 68.7°F20.4°C 67.5°F19.7°C 96% 1.2 mph S1.9 kmh S -- 31.86 in1078.9 mb - 0.00 in0.0 mm 0.00 in0.0 mm
03:20 AM 68.6°F20.3°C 67.4°F19.7°C 96% Calm Calm 1.2 mph1.9 kmh 31.86 in1078.9 mb - 0.01 in0.3 mm 0.01 in0.3 mm
03:25 AM 68.4°F20.2°C 67.2°F19.6°C 96% 1.2 mph ENE1.9 kmh ENE 1.2 mph1.9 kmh 31.86 in1078.9 mb - 0.01 in0.3 mm 0.01 in0.3 mm
03:30 AM 68.2°F20.1°C 67.3°F19.6°C 97% 1.2 mph ESE1.9 kmh ESE 1.2 mph1.9 kmh 31.86 in1078.9 mb - 0.01 in0.3 mm 0.01 in0.3 mm
03:35 AM 68.0°F20.0°C 67.1°F19.5°C 97% Calm Calm -- 31.86 in1078.9 mb - 0.01 in0.3 mm 0.01 in0.3 mm
03:40 AM 68.0°F20.0°C 67.4°F19.7°C 98% Calm Calm -- 31.86 in1078.9 mb - 0.01 in0.3 mm 0.01 in0.3 mm
03:45 AM 68.0°F20.0°C 67.4°F19.7°C 98% 1.2 mph E1.9 kmh E 1.2 mph1.9 kmh 31.86 in1078.9 mb - 0.01 in0.3 mm 0.01 in0.3 mm
03:50 AM 67.8°F19.9°C 67.2°F19.6°C 98% Calm Calm 2.3 mph3.7 kmh 31.86 in1078.9 mb - 0.01 in0.3 mm 0.01 in0.3 mm
03:55 AM 67.8°F19.9°C 67.2°F19.6°C 98% 1.2 mph SE1.9 kmh SE 1.2 mph1.9 kmh 31.86 in1078.9 mb - 0.01 in0.3 mm 0.01 in0.3 mm
04:00 AM 67.8°F19.9°C 67.2°F19.6°C 98% Calm Calm -- 31.86 in1078.9 mb - 0.01 in0.3 mm 0.01 in0.3 mm
04:10 AM 67.8°F19.9°C 67.2°F19.6°C 98% Calm Calm -- 31.86 in1078.9 mb - 0.01 in0.3 mm 0.01 in0.3 mm
04:15 AM 67.7°F19.8°C 67.4°F19.7°C 99% Calm Calm -- 31.86 in1078.9 mb - 0.01 in0.3 mm 0.01 in0.3 mm
04:20 AM 67.7°F19.8°C 67.4°F19.7°C 99% Calm Calm -- 31.86 in1078.9 mb - 0.00 in0.0 mm 0.01 in0.3 mm
04:25 AM 67.7°F19.8°C 67.4°F19.7°C 99% Calm Calm -- 31.86 in1078.9 mb - 0.00 in0.0 mm 0.01 in0.3 mm
04:30 AM 67.7°F19.8°C 67.4°F19.7°C 99% Calm Calm 2.3 mph3.7 kmh 31.86 in1078.9 mb - 0.00 in0.0 mm 0.01 in0.3 mm
04:35 AM 67.7°F19.8°C 67.4°F19.7°C 99% 3.5 mph S5.6 kmh S 5.8 mph9.3 kmh 31.86 in1078.9 mb - 0.00 in0.0 mm 0.01 in0.3 mm
04:40 AM 68.5°F20.3°C 67.7°F19.8°C 97% 5.8 mph S9.3 kmh S 6.9 mph11.1 kmh 31.86 in1078.9 mb - 0.00 in0.0 mm 0.01 in0.3 mm
04:45 AM 68.7°F20.4°C 67.8°F19.9°C 97% 6.9 mph SSW11.1 kmh SSW 8.1 mph13.0 kmh 31.86 in1078.9 mb - 0.00 in0.0 mm 0.01 in0.3 mm
04:50 AM 68.7°F20.4°C 67.8°F19.9°C 97% 9.2 mph S14.8 kmh S 10.4 mph16.7 kmh 31.86 in1078.9 mb - 0.00 in0.0 mm 0.01 in0.3 mm
04:55 AM 68.8°F20.4°C 67.9°F19.9°C 97% 10.4 mph SSW16.7 kmh SSW 10.4 mph16.7 kmh 31.86 in1078.9 mb - 0.00 in0.0 mm 0.01 in0.3 mm
05:00 AM 69.0°F20.6°C 67.8°F19.9°C 96% 11.5 mph SSW18.5 kmh SSW 13.8 mph22.2 kmh 31.86 in1078.9 mb - 0.00 in0.0 mm 0.01 in0.3 mm
05:10 AM 69.1°F20.6°C 67.6°F19.8°C 95% 9.2 mph SW14.8 kmh SW 10.4 mph16.7 kmh 31.86 in1078.9 mb - 0.00 in0.0 mm 0.01 in0.3 mm
05:15 AM 69.1°F20.6°C 67.6°F19.8°C 95% 9.2 mph S14.8 kmh S 10.4 mph16.7 kmh 31.86 in1078.9 mb - 0.00 in0.0 mm 0.01 in0.3 mm
05:20 AM 68.9°F20.5°C 67.7°F19.8°C 96% 8.1 mph SSW13.0 kmh SSW 8.1 mph13.0 kmh 31.86 in1078.9 mb - 0.00 in0.0 mm 0.01 in0.3 mm
05:25 AM 68.7°F20.4°C 67.8°F19.9°C 97% 8.1 mph SSW13.0 kmh SSW 8.1 mph13.0 kmh 31.86 in1078.9 mb - 0.00 in0.0 mm 0.01 in0.3 mm
05:30 AM 68.6°F20.3°C 67.7°F19.8°C 97% 6.9 mph S11.1 kmh S 8.1 mph13.0 kmh 31.86 in1078.9 mb - 0.00 in0.0 mm 0.01 in0.3 mm
05:35 AM 68.4°F20.2°C 67.8°F19.9°C 98% 6.9 mph S11.1 kmh S 8.1 mph13.0 kmh 31.86 in1078.9 mb - 0.00 in0.0 mm 0.01 in0.3 mm
05:40 AM 68.4°F20.2°C 67.8°F19.9°C 98% 8.1 mph SSW13.0 kmh SSW 8.1 mph13.0 kmh 31.86 in1078.9 mb - 0.00 in0.0 mm 0.01 in0.3 mm
05:45 AM 68.4°F20.2°C 67.8°F19.9°C 98% 8.1 mph SSW13.0 kmh SSW 9.2 mph14.8 kmh 31.86 in1078.9 mb - 0.00 in0.0 mm 0.01 in0.3 mm
05:50 AM 68.4°F20.2°C 67.8°F19.9°C 98% 8.1 mph SSW13.0 kmh SSW 9.2 mph14.8 kmh 31.86 in1078.9 mb - 0.00 in0.0 mm 0.01 in0.3 mm
05:55 AM 68.4°F20.2°C 67.8°F19.9°C 98% 8.1 mph SSW13.0 kmh SSW 8.1 mph13.0 kmh 31.86 in1078.9 mb - 0.00 in0.0 mm 0.01 in0.3 mm
06:00 AM 68.4°F20.2°C 67.8°F19.9°C 98% 8.1 mph S13.0 kmh S 9.2 mph14.8 kmh 31.86 in1078.9 mb - 0.00 in0.0 mm 0.01 in0.3 mm
06:10 AM 68.4°F20.2°C 67.8°F19.9°C 98% 8.1 mph SSW13.0 kmh SSW 9.2 mph14.8 kmh 31.86 in1078.9 mb - 0.00 in0.0 mm 0.01 in0.3 mm
06:15 AM 68.5°F20.3°C 67.6°F19.8°C 97% 6.9 mph SSW11.1 kmh SSW 8.1 mph13.0 kmh 31.86 in1078.9 mb - 0.00 in0.0 mm 0.01 in0.3 mm
06:20 AM 68.6°F20.3°C 67.7°F19.8°C 97% 8.1 mph SSW13.0 kmh SSW 8.1 mph13.0 kmh 31.86 in1078.9 mb - 0.00 in0.0 mm 0.01 in0.3 mm
06:25 AM 68.6°F20.3°C 67.7°F19.8°C 97% 8.1 mph SSE13.0 kmh SSE 8.1 mph13.0 kmh 31.86 in1078.9 mb - 0.00 in0.0 mm 0.01 in0.3 mm
06:30 AM 68.4°F20.2°C 67.9°F19.9°C 98% 5.8 mph S9.3 kmh S 6.9 mph11.1 kmh 31.86 in1078.9 mb - 0.00 in0.0 mm 0.01 in0.3 mm
06:35 AM 68.4°F20.2°C 67.8°F19.9°C 98% 5.8 mph S9.3 kmh S 6.9 mph11.1 kmh 31.86 in1078.9 mb - 0.00 in0.0 mm 0.01 in0.3 mm
06:40 AM 68.4°F20.2°C 67.8°F19.9°C 98% 4.6 mph S7.4 kmh S 5.8 mph9.3 kmh 31.86 in1078.9 mb - 0.00 in0.0 mm 0.01 in0.3 mm
06:45 AM 68.4°F20.2°C 67.8°F19.9°C 98% 4.6 mph SE7.4 kmh SE 5.8 mph9.3 kmh 31.86 in1078.9 mb - 0.00 in0.0 mm 0.01 in0.3 mm
06:50 AM 68.4°F20.2°C 67.8°F19.9°C 98% 3.5 mph S5.6 kmh S 3.5 mph5.6 kmh 31.86 in1078.9 mb - 0.00 in0.0 mm 0.01 in0.3 mm
06:55 AM 68.4°F20.2°C 67.8°F19.9°C 98% 4.6 mph SSW7.4 kmh SSW 5.8 mph9.3 kmh 31.86 in1078.9 mb - 0.00 in0.0 mm 0.01 in0.3 mm
07:00 AM 68.4°F20.2°C 67.8°F19.9°C 98% 4.6 mph SSE7.4 kmh SSE 5.8 mph9.3 kmh 31.86 in1078.9 mb - 0.00 in0.0 mm 0.01 in0.3 mm
07:10 AM 68.4°F20.2°C 67.8°F19.9°C 98% 4.6 mph SE7.4 kmh SE 4.6 mph7.4 kmh 31.86 in1078.9 mb - 0.00 in0.0 mm 0.01 in0.3 mm
07:15 AM 68.4°F20.2°C 68.1°F20.1°C 99% 3.5 mph S5.6 kmh S 3.5 mph5.6 kmh 31.86 in1078.9 mb - 0.00 in0.0 mm 0.01 in0.3 mm
07:20 AM 68.4°F20.2°C 68.1°F20.1°C 99% 3.5 mph S5.6 kmh S 4.6 mph7.4 kmh 31.86 in1078.9 mb - 0.00 in0.0 mm 0.01 in0.3 mm
07:25 AM 68.4°F20.2°C 68.1°F20.1°C 99% 3.5 mph S5.6 kmh S 4.6 mph7.4 kmh 31.86 in1078.9 mb - 0.00 in0.0 mm 0.01 in0.3 mm
07:30 AM 68.4°F20.2°C 68.1°F20.1°C 99% 3.5 mph S5.6 kmh S 3.5 mph5.6 kmh 31.86 in1078.9 mb - 0.00 in0.0 mm 0.01 in0.3 mm
07:35 AM 68.4°F20.2°C 68.1°F20.1°C 99% 4.6 mph SSE7.4 kmh SSE 5.8 mph9.3 kmh 31.86 in1078.9 mb - 0.00 in0.0 mm 0.01 in0.3 mm
07:40 AM 68.4°F20.2°C 68.1°F20.1°C 99% 4.6 mph S7.4 kmh S 5.8 mph9.3 kmh 31.86 in1078.9 mb - 0.00 in0.0 mm 0.01 in0.3 mm
07:45 AM 68.4°F20.2°C 68.1°F20.1°C 99% 4.6 mph S7.4 kmh S 5.8 mph9.3 kmh 31.86 in1078.9 mb - 0.00 in0.0 mm 0.01 in0.3 mm
07:50 AM 68.4°F20.2°C 68.1°F20.1°C 99% 4.6 mph SE7.4 kmh SE 5.8 mph9.3 kmh 31.86 in1078.9 mb - 0.00 in0.0 mm 0.01 in0.3 mm
07:55 AM 68.4°F20.2°C 68.1°F20.1°C 99% 4.6 mph SE7.4 kmh SE 5.8 mph9.3 kmh 31.86 in1078.9 mb - 0.00 in0.0 mm 0.01 in0.3 mm
08:00 AM 68.4°F20.2°C 68.1°F20.1°C 99% 4.6 mph SSE7.4 kmh SSE 5.8 mph9.3 kmh 31.86 in1078.9 mb - 0.00 in0.0 mm 0.01 in0.3 mm
08:10 AM 68.4°F20.2°C 68.1°F20.1°C 99% 4.6 mph S7.4 kmh S 4.6 mph7.4 kmh 31.86 in1078.9 mb - 0.00 in0.0 mm 0.01 in0.3 mm
08:15 AM 68.2°F20.1°C 67.9°F19.9°C 99% 4.6 mph SSW7.4 kmh SSW 5.8 mph9.3 kmh 31.86 in1078.9 mb - 0.00 in0.0 mm 0.01 in0.3 mm
08:20 AM 68.4°F20.2°C 68.1°F20.1°C 99% 4.6 mph SE7.4 kmh SE 5.8 mph9.3 kmh 31.86 in1078.9 mb - 0.00 in0.0 mm 0.01 in0.3 mm
08:25 AM 68.6°F20.3°C 68.3°F20.2°C 99% 5.8 mph S9.3 kmh S 5.8 mph9.3 kmh 31.86 in1078.9 mb - 0.00 in0.0 mm 0.01 in0.3 mm
08:30 AM 68.7°F20.4°C 68.4°F20.2°C 99% 4.6 mph SSW7.4 kmh SSW 5.8 mph9.3 kmh 31.86 in1078.9 mb - 0.00 in0.0 mm 0.01 in0.3 mm
08:35 AM 68.7°F20.4°C 68.1°F20.1°C 98% 5.8 mph SSW9.3 kmh SSW 5.8 mph9.3 kmh 31.86 in1078.9 mb - 0.00 in0.0 mm 0.01 in0.3 mm
08:40 AM 68.7°F20.4°C 68.1°F20.1°C 98% 5.8 mph S9.3 kmh S 8.1 mph13.0 kmh 31.86 in1078.9 mb - 0.00 in0.0 mm 0.01 in0.3 mm
08:45 AM 68.9°F20.5°C 68.3°F20.2°C 98% 4.6 mph SSW7.4 kmh SSW 5.8 mph9.3 kmh 31.86 in1078.9 mb - 0.00 in0.0 mm 0.01 in0.3 mm
08:50 AM 68.9°F20.5°C 68.3°F20.2°C 98% 3.5 mph S5.6 kmh S 4.6 mph7.4 kmh 31.86 in1078.9 mb - 0.00 in0.0 mm 0.01 in0.3 mm
08:55 AM 69.1°F20.6°C 68.5°F20.3°C 98% 3.5 mph SSE5.6 kmh SSE 3.5 mph5.6 kmh 31.86 in1078.9 mb - 0.00 in0.0 mm 0.01 in0.3 mm
09:00 AM 69.1°F20.6°C 68.5°F20.3°C 98% 2.3 mph SW3.7 kmh SW 3.5 mph5.6 kmh 31.86 in1078.9 mb - 0.00 in0.0 mm 0.01 in0.3 mm
09:10 AM 69.1°F20.6°C 68.5°F20.3°C 98% 3.5 mph SSW5.6 kmh SSW 4.6 mph7.4 kmh 31.86 in1078.9 mb - 0.00 in0.0 mm 0.01 in0.3 mm
09:15 AM 69.1°F20.6°C 68.5°F20.3°C 98% 3.5 mph SSW5.6 kmh SSW 4.6 mph7.4 kmh 31.86 in1078.9 mb - 0.00 in0.0 mm 0.01 in0.3 mm
09:20 AM 69.1°F20.6°C 68.5°F20.3°C 98% 2.3 mph S3.7 kmh S 3.5 mph5.6 kmh 31.86 in1078.9 mb - 0.00 in0.0 mm 0.01 in0.3 mm
09:25 AM 69.1°F20.6°C 68.5°F20.3°C 98% 2.3 mph S3.7 kmh S 3.5 mph5.6 kmh 31.86 in1078.9 mb - 0.00 in0.0 mm 0.01 in0.3 mm
09:30 AM 69.1°F20.6°C 68.5°F20.3°C 98% 2.3 mph S3.7 kmh S 3.5 mph5.6 kmh 31.86 in1078.9 mb - 0.00 in0.0 mm 0.01 in0.3 mm
09:35 AM 69.1°F20.6°C 68.5°F20.3°C 98% 2.3 mph SE3.7 kmh SE 3.5 mph5.6 kmh 31.86 in1078.9 mb - 0.00 in0.0 mm 0.01 in0.3 mm
09:40 AM 69.1°F20.6°C 68.5°F20.3°C 98% 2.3 mph SE3.7 kmh SE 2.3 mph3.7 kmh 31.86 in1078.9 mb - 0.00 in0.0 mm 0.01 in0.3 mm
09:45 AM 69.1°F20.6°C 68.5°F20.3°C 98% 2.3 mph S3.7 kmh S 2.3 mph3.7 kmh 31.86 in1078.9 mb - 0.00 in0.0 mm 0.01 in0.3 mm
09:50 AM 69.3°F20.7°C 68.7°F20.4°C 98% 3.5 mph S5.6 kmh S 3.5 mph5.6 kmh 31.86 in1078.9 mb - 0.00 in0.0 mm 0.01 in0.3 mm
09:55 AM 69.5°F20.8°C 68.9°F20.5°C 98% 2.3 mph S3.7 kmh S 3.5 mph5.6 kmh 31.86 in1078.9 mb - 0.00 in0.0 mm 0.01 in0.3 mm
10:00 AM 69.5°F20.8°C 68.9°F20.5°C 98% 2.3 mph S3.7 kmh S 2.3 mph3.7 kmh 31.86 in1078.9 mb - 0.00 in0.0 mm 0.01 in0.3 mm
10:10 AM 69.5°F20.8°C 68.9°F20.5°C 98% 2.3 mph S3.7 kmh S 2.3 mph3.7 kmh 31.86 in1078.9 mb - 0.00 in0.0 mm 0.01 in0.3 mm
10:15 AM 69.5°F20.8°C 68.9°F20.5°C 98% 2.3 mph S3.7 kmh S 3.5 mph5.6 kmh 31.86 in1078.9 mb - 0.00 in0.0 mm 0.01 in0.3 mm
10:20 AM 69.6°F20.9°C 68.7°F20.4°C 97% 2.3 mph SE3.7 kmh SE 3.5 mph5.6 kmh 31.86 in1078.9 mb - 0.00 in0.0 mm 0.01 in0.3 mm
10:25 AM 69.6°F20.9°C 68.7°F20.4°C 97% 3.5 mph SSE5.6 kmh SSE 4.6 mph7.4 kmh 31.86 in1078.9 mb - 0.00 in0.0 mm 0.01 in0.3 mm
10:30 AM 69.8°F21.0°C 68.9°F20.5°C 97% 3.5 mph S5.6 kmh S 4.6 mph7.4 kmh 31.86 in1078.9 mb - 0.00 in0.0 mm 0.01 in0.3 mm
10:35 AM 69.6°F20.9°C 68.7°F20.4°C 97% 3.5 mph S5.6 kmh S 4.6 mph7.4 kmh 31.86 in1078.9 mb - 0.00 in0.0 mm 0.01 in0.3 mm
10:40 AM 69.5°F20.8°C 68.9°F20.5°C 98% 4.6 mph S7.4 kmh S 4.6 mph7.4 kmh 31.86 in1078.9 mb - 0.00 in0.0 mm 0.01 in0.3 mm
10:45 AM 69.3°F20.7°C 68.7°F20.4°C 98% 4.6 mph S7.4 kmh S 6.9 mph11.1 kmh 31.86 in1078.9 mb - 0.00 in0.0 mm 0.01 in0.3 mm
10:50 AM 69.3°F20.7°C 68.7°F20.4°C 98% 5.8 mph SSW9.3 kmh SSW 5.8 mph9.3 kmh 31.86 in1078.9 mb - 0.00 in0.0 mm 0.01 in0.3 mm
10:55 AM 69.3°F20.7°C 68.7°F20.4°C 98% 4.6 mph S7.4 kmh S 5.8 mph9.3 kmh 31.86 in1078.9 mb - 0.00 in0.0 mm 0.01 in0.3 mm
11:00 AM 69.3°F20.7°C 68.7°F20.4°C 98% 4.6 mph SE7.4 kmh SE 4.6 mph7.4 kmh 31.86 in1078.9 mb - 0.00 in0.0 mm 0.01 in0.3 mm
11:10 AM 69.4°F20.8°C 68.8°F20.4°C 98% 5.8 mph SSW9.3 kmh SSW 5.8 mph9.3 kmh 31.86 in1078.9 mb - 0.00 in0.0 mm 0.01 in0.3 mm
11:15 AM 69.5°F20.8°C 68.9°F20.5°C 98% 5.8 mph SSE9.3 kmh SSE 5.8 mph9.3 kmh 31.86 in1078.9 mb - 0.00 in0.0 mm 0.01 in0.3 mm
11:20 AM 69.5°F20.8°C 68.9°F20.5°C 98% 6.9 mph SSE11.1 kmh SSE 8.1 mph13.0 kmh 31.86 in1078.9 mb - 0.00 in0.0 mm 0.01 in0.3 mm
11:25 AM 69.8°F21.0°C 69.2°F20.7°C 98% 5.8 mph SSE9.3 kmh SSE 6.9 mph11.1 kmh 31.86 in1078.9 mb - 0.00 in0.0 mm 0.01 in0.3 mm
11:30 AM 70.2°F21.2°C 69.3°F20.7°C 97% 4.6 mph SSE7.4 kmh SSE 5.8 mph9.3 kmh 31.86 in1078.9 mb - 0.00 in0.0 mm 0.01 in0.3 mm
11:35 AM 70.4°F21.3°C 69.2°F20.7°C 96% 4.6 mph SSW7.4 kmh SSW 5.8 mph9.3 kmh 31.86 in1078.9 mb - 0.00 in0.0 mm 0.01 in0.3 mm
11:40 AM 70.5°F21.4°C 69.3°F20.7°C 96% 4.6 mph S7.4 kmh S 4.6 mph7.4 kmh 31.86 in1078.9 mb - 0.00 in0.0 mm 0.01 in0.3 mm
11:45 AM 70.5°F21.4°C 69.3°F20.7°C 96% 4.6 mph SSE7.4 kmh SSE 5.8 mph9.3 kmh 31.86 in1078.9 mb - 0.00 in0.0 mm 0.01 in0.3 mm
11:50 AM 70.0°F21.1°C 68.8°F20.4°C 96% 5.8 mph S9.3 kmh S 5.8 mph9.3 kmh 31.86 in1078.9 mb - 0.00 in0.0 mm 0.01 in0.3 mm
11:55 AM 69.6°F20.9°C 68.7°F20.4°C 97% 6.9 mph S11.1 kmh S 8.1 mph13.0 kmh 31.86 in1078.9 mb - 0.00 in0.0 mm 0.01 in0.3 mm
12:00 PM 69.6°F20.9°C 68.7°F20.4°C 97% 6.9 mph S11.1 kmh S 6.9 mph11.1 kmh 31.86 in1078.9 mb - 0.00 in0.0 mm 0.01 in0.3 mm
12:10 PM 69.6°F20.9°C 68.7°F20.4°C 97% 9.2 mph SSW14.8 kmh SSW 10.4 mph16.7 kmh 31.86 in1078.9 mb - 0.00 in0.0 mm 0.01 in0.3 mm
12:15 PM 69.6°F20.9°C 68.7°F20.4°C 97% 9.2 mph S14.8 kmh S 10.4 mph16.7 kmh 31.86 in1078.9 mb - 0.00 in0.0 mm 0.01 in0.3 mm
12:20 PM 69.5°F20.8°C 68.6°F20.3°C 97% 9.2 mph S14.8 kmh S 10.4 mph16.7 kmh 31.86 in1078.9 mb - 0.00 in0.0 mm 0.01 in0.3 mm
12:25 PM 69.5°F20.8°C 68.9°F20.5°C 98% 9.2 mph S14.8 kmh S 10.4 mph16.7 kmh 31.86 in1078.9 mb - 0.00 in0.0 mm 0.01 in0.3 mm
12:30 PM 69.5°F20.8°C 68.9°F20.5°C 98% 10.4 mph SSW16.7 kmh SSW 11.5 mph18.5 kmh 31.86 in1078.9 mb - 0.00 in0.0 mm 0.01 in0.3 mm
12:35 PM 69.3°F20.7°C 68.7°F20.4°C 98% 9.2 mph S14.8 kmh S 9.2 mph14.8 kmh 31.86 in1078.9 mb - 0.00 in0.0 mm 0.01 in0.3 mm
12:40 PM 69.1°F20.6°C 68.8°F20.4°C 99% 10.4 mph SSW16.7 kmh SSW 11.5 mph18.5 kmh 31.86 in1078.9 mb - 0.00 in0.0 mm 0.01 in0.3 mm
12:45 PM 69.1°F20.6°C 68.8°F20.4°C 99% 11.5 mph SW18.5 kmh SW 12.7 mph20.4 kmh 31.86 in1078.9 mb - 0.00 in0.0 mm 0.01 in0.3 mm
12:50 PM 68.9°F20.5°C 68.6°F20.3°C 99% 10.4 mph S16.7 kmh S 10.4 mph16.7 kmh 31.86 in1078.9 mb - 0.00 in0.0 mm 0.01 in0.3 mm
12:55 PM 68.8°F20.4°C 68.5°F20.3°C 99% 10.4 mph S16.7 kmh S 11.5 mph18.5 kmh 31.86 in1078.9 mb - 0.00 in0.0 mm 0.01 in0.3 mm
01:00 PM 68.6°F20.3°C 68.3°F20.2°C 99% 10.4 mph S16.7 kmh S 11.5 mph18.5 kmh 31.86 in1078.9 mb - 0.00 in0.0 mm 0.01 in0.3 mm
01:10 PM 68.6°F20.3°C 68.3°F20.2°C 99% 9.2 mph SSW14.8 kmh SSW 10.4 mph16.7 kmh 31.86 in1078.9 mb - 0.00 in0.0 mm 0.01 in0.3 mm
01:15 PM 68.6°F20.3°C 68.3°F20.2°C 99% 9.2 mph SW14.8 kmh SW 10.4 mph16.7 kmh 31.86 in1078.9 mb - 0.00 in0.0 mm 0.01 in0.3 mm
01:20 PM 68.4°F20.2°C 68.1°F20.1°C 99% 10.4 mph SSW16.7 kmh SSW 10.4 mph16.7 kmh 31.86 in1078.9 mb - 0.00 in0.0 mm 0.01 in0.3 mm
01:25 PM 68.4°F20.2°C 68.1°F20.1°C 99% 9.2 mph SSW14.8 kmh SSW 10.4 mph16.7 kmh 31.86 in1078.9 mb - 0.00 in0.0 mm 0.01 in0.3 mm
01:30 PM 68.4°F20.2°C 68.1°F20.1°C 99% 9.2 mph SE14.8 kmh SE 10.4 mph16.7 kmh 31.86 in1078.9 mb - 0.00 in0.0 mm 0.01 in0.3 mm
01:35 PM 68.6°F20.3°C 68.3°F20.2°C 99% 8.1 mph S13.0 kmh S 9.2 mph14.8 kmh 31.86 in1078.9 mb - 0.00 in0.0 mm 0.01 in0.3 mm
01:40 PM 68.6°F20.3°C 68.3°F20.2°C 99% 9.2 mph SSW14.8 kmh SSW 9.2 mph14.8 kmh 31.86 in1078.9 mb - 0.00 in0.0 mm 0.01 in0.3 mm
01:45 PM 68.9°F20.5°C 68.6°F20.3°C 99% 8.1 mph S13.0 kmh S 9.2 mph14.8 kmh 31.86 in1078.9 mb - 0.00 in0.0 mm 0.01 in0.3 mm
01:50 PM 69.1°F20.6°C 68.8°F20.4°C 99% 9.2 mph SSW14.8 kmh SSW 10.4 mph16.7 kmh 31.86 in1078.9 mb - 0.00 in0.0 mm 0.01 in0.3 mm
01:55 PM 69.0°F20.6°C 68.7°F20.4°C 99% 9.2 mph SSW14.8 kmh SSW 10.4 mph16.7 kmh 31.86 in1078.9 mb - 0.00 in0.0 mm 0.01 in0.3 mm
02:00 PM 68.9°F20.5°C 68.6°F20.3°C 99% 8.1 mph S13.0 kmh S 8.1 mph13.0 kmh 31.86 in1078.9 mb - 0.00 in0.0 mm 0.01 in0.3 mm
02:10 PM 68.9°F20.5°C 68.6°F20.3°C 99% 5.8 mph S9.3 kmh S 6.9 mph11.1 kmh 31.86 in1078.9 mb - 0.00 in0.0 mm 0.01 in0.3 mm
02:15 PM 68.9°F20.5°C 68.6°F20.3°C 99% 6.9 mph S11.1 kmh S 6.9 mph11.1 kmh 31.86 in1078.9 mb - 0.00 in0.0 mm 0.01 in0.3 mm
02:20 PM 68.9°F20.5°C 68.6°F20.3°C 99% 5.8 mph SSE9.3 kmh SSE 4.6 mph7.4 kmh 31.86 in1078.9 mb - 0.00 in0.0 mm 0.01 in0.3 mm
02:25 PM 69.0°F20.6°C 68.7°F20.4°C 99% 4.6 mph SSE7.4 kmh SSE 4.6 mph7.4 kmh 31.86 in1078.9 mb - 0.00 in0.0 mm 0.01 in0.3 mm
02:30 PM 69.1°F20.6°C 68.8°F20.4°C 99% 4.6 mph S7.4 kmh S 5.8 mph9.3 kmh 31.86 in1078.9 mb - 0.00 in0.0 mm 0.01 in0.3 mm
02:35 PM 69.5°F20.8°C 69.2°F20.7°C 99% 4.6 mph S7.4 kmh S 4.6 mph7.4 kmh 31.86 in1078.9 mb - 0.00 in0.0 mm 0.01 in0.3 mm
02:40 PM 69.6°F20.9°C 69.3°F20.7°C 99% 4.6 mph S7.4 kmh S 4.6 mph7.4 kmh 31.86 in1078.9 mb - 0.00 in0.0 mm 0.01 in0.3 mm
02:45 PM 69.5°F20.8°C 69.2°F20.7°C 99% 4.6 mph SSE7.4 kmh SSE 5.8 mph9.3 kmh 31.86 in1078.9 mb - 0.00 in0.0 mm 0.01 in0.3 mm
02:50 PM 69.5°F20.8°C 69.2°F20.7°C 99% 4.6 mph S7.4 kmh S 5.8 mph9.3 kmh 31.86 in1078.9 mb - 0.00 in0.0 mm 0.01 in0.3 mm
02:55 PM 69.3°F20.7°C 69.0°F20.6°C 99% 4.6 mph SSE7.4 kmh SSE 5.8 mph9.3 kmh 31.86 in1078.9 mb - 0.00 in0.0 mm 0.01 in0.3 mm
03:00 PM 69.5°F20.8°C 69.2°F20.7°C 99% 5.8 mph S9.3 kmh S 5.8 mph9.3 kmh 31.86 in1078.9 mb - 0.00 in0.0 mm 0.01 in0.3 mm
03:10 PM 70.0°F21.1°C 69.7°F20.9°C 99% 4.6 mph SSE7.4 kmh SSE 5.8 mph9.3 kmh 31.86 in1078.9 mb - 0.00 in0.0 mm 0.01 in0.3 mm
03:15 PM 70.7°F21.5°C 70.1°F21.2°C 98% 3.5 mph SSE5.6 kmh SSE 4.6 mph7.4 kmh 31.86 in1078.9 mb - 0.00 in0.0 mm 0.01 in0.3 mm
03:20 PM 71.2°F21.8°C 70.3°F21.3°C 97% 3.5 mph S5.6 kmh S 4.6 mph7.4 kmh 31.86 in1078.9 mb - 0.00 in0.0 mm 0.01 in0.3 mm
03:25 PM 72.2°F22.3°C 71.0°F21.7°C 96% 2.3 mph SSE3.7 kmh SSE 4.6 mph7.4 kmh 31.86 in1078.9 mb - 0.00 in0.0 mm 0.01 in0.3 mm
03:30 PM 71.5°F21.9°C 70.0°F21.1°C 95% 2.3 mph SSE3.7 kmh SSE 3.5 mph5.6 kmh 31.86 in1078.9 mb - 0.00 in0.0 mm 0.01 in0.3 mm
03:35 PM 70.9°F21.6°C 70.0°F21.1°C 97% 2.3 mph S3.7 kmh S 4.6 mph7.4 kmh 31.86 in1078.9 mb - 0.00 in0.0 mm 0.01 in0.3 mm
03:40 PM 70.2°F21.2°C 69.6°F20.9°C 98% 2.3 mph SSE3.7 kmh SSE 2.3 mph3.7 kmh 31.86 in1078.9 mb - 0.00 in0.0 mm 0.01 in0.3 mm
03:45 PM 70.2°F21.2°C 69.6°F20.9°C 98% 2.3 mph S3.7 kmh S 2.3 mph3.7 kmh 31.86 in1078.9 mb - 0.00 in0.0 mm 0.01 in0.3 mm
03:50 PM 70.0°F21.1°C 69.7°F20.9°C 99% 2.3 mph S3.7 kmh S 2.3 mph3.7 kmh 31.86 in1078.9 mb - 0.00 in0.0 mm 0.01 in0.3 mm
03:55 PM 70.0°F21.1°C 69.7°F20.9°C 99% 3.5 mph SE5.6 kmh SE 3.5 mph5.6 kmh 31.86 in1078.9 mb - 0.00 in0.0 mm 0.01 in0.3 mm
04:00 PM 69.6°F20.9°C 69.3°F20.7°C 99% 3.5 mph SSE5.6 kmh SSE 4.6 mph7.4 kmh 31.86 in1078.9 mb - 0.00 in0.0 mm 0.01 in0.3 mm
04:10 PM 69.5°F20.8°C 69.2°F20.7°C 99% 3.5 mph SSE5.6 kmh SSE 3.5 mph5.6 kmh 31.86 in1078.9 mb - 0.00 in0.0 mm 0.01 in0.3 mm
04:15 PM 69.5°F20.8°C 69.2°F20.7°C 99% 2.3 mph SE3.7 kmh SE 3.5 mph5.6 kmh 31.86 in1078.9 mb - 0.00 in0.0 mm 0.01 in0.3 mm
04:20 PM 69.9°F21.1°C 69.6°F20.9°C 99% 3.5 mph ESE5.6 kmh ESE 4.6 mph7.4 kmh 31.86 in1078.9 mb - 0.00 in0.0 mm 0.01 in0.3 mm
04:25 PM 69.8°F21.0°C 69.5°F20.8°C 99% 4.6 mph S7.4 kmh S 5.8 mph9.3 kmh 31.86 in1078.9 mb - 0.00 in0.0 mm 0.01 in0.3 mm
04:30 PM 69.8°F21.0°C 69.5°F20.8°C 99% 4.6 mph S7.4 kmh S 5.8 mph9.3 kmh 31.86 in1078.9 mb - 0.00 in0.0 mm 0.01 in0.3 mm
04:35 PM 69.5°F20.8°C 69.2°F20.7°C 99% 5.8 mph S9.3 kmh S 6.9 mph11.1 kmh 31.86 in1078.9 mb - 0.00 in0.0 mm 0.01 in0.3 mm
04:40 PM 69.5°F20.8°C 69.2°F20.7°C 99% 5.8 mph S9.3 kmh S 6.9 mph11.1 kmh 31.86 in1078.9 mb - 0.00 in0.0 mm 0.01 in0.3 mm
04:45 PM 69.5°F20.8°C 69.2°F20.7°C 99% 5.8 mph S9.3 kmh S 5.8 mph9.3 kmh 31.86 in1078.9 mb - 0.00 in0.0 mm 0.01 in0.3 mm
04:50 PM 69.3°F20.7°C 69.0°F20.6°C 99% 4.6 mph SSE7.4 kmh SSE 4.6 mph7.4 kmh 31.86 in1078.9 mb - 0.00 in0.0 mm 0.01 in0.3 mm
04:55 PM 69.3°F20.7°C 69.0°F20.6°C 99% 2.3 mph S3.7 kmh S 4.6 mph7.4 kmh 31.86 in1078.9 mb - 0.00 in0.0 mm 0.01 in0.3 mm
05:00 PM 68.9°F20.5°C 68.6°F20.3°C 99% 3.5 mph SE5.6 kmh SE 3.5 mph5.6 kmh 31.86 in1078.9 mb - 0.00 in0.0 mm 0.01 in0.3 mm
05:10 PM 69.1°F20.6°C 68.8°F20.4°C 99% 2.3 mph SE3.7 kmh SE 3.5 mph5.6 kmh 31.86 in1078.9 mb - 0.00 in0.0 mm 0.01 in0.3 mm
05:15 PM 69.1°F20.6°C 68.8°F20.4°C 99% 2.3 mph SSE3.7 kmh SSE 2.3 mph3.7 kmh 31.86 in1078.9 mb - 0.00 in0.0 mm 0.01 in0.3 mm
05:20 PM 69.3°F20.7°C 69.0°F20.6°C 99% 2.3 mph SSE3.7 kmh SSE 2.3 mph3.7 kmh 31.86 in1078.9 mb - 0.00 in0.0 mm 0.01 in0.3 mm
05:25 PM 69.3°F20.7°C 69.0°F20.6°C 99% 1.2 mph SSE1.9 kmh SSE 2.3 mph3.7 kmh 31.86 in1078.9 mb - 0.00 in0.0 mm 0.01 in0.3 mm
05:30 PM 69.3°F20.7°C 69.0°F20.6°C 99% 1.2 mph SSE1.9 kmh SSE 1.2 mph1.9 kmh 31.86 in1078.9 mb - 0.00 in0.0 mm 0.01 in0.3 mm
05:35 PM 69.5°F20.8°C 69.3°F20.7°C 99% 2.3 mph S3.7 kmh S 2.3 mph3.7 kmh 31.86 in1078.9 mb - 0.00 in0.0 mm 0.01 in0.3 mm
05:40 PM 69.8°F21.0°C 69.5°F20.8°C 99% 2.3 mph SE3.7 kmh SE 3.5 mph5.6 kmh 31.86 in1078.9 mb - 0.00 in0.0 mm 0.01 in0.3 mm
05:45 PM 69.5°F20.8°C 69.2°F20.7°C 99% 2.3 mph S3.7 kmh S 3.5 mph5.6 kmh 31.86 in1078.9 mb - 0.00 in0.0 mm 0.01 in0.3 mm
05:50 PM 69.6°F20.9°C 69.3°F20.7°C 99% 3.5 mph S5.6 kmh S 3.5 mph5.6 kmh 31.86 in1078.9 mb - 0.00 in0.0 mm 0.01 in0.3 mm
05:55 PM 69.5°F20.8°C 69.2°F20.7°C 99% 2.3 mph SSE3.7 kmh SSE 2.3 mph3.7 kmh 31.86 in1078.9 mb - 0.00 in0.0 mm 0.01 in0.3 mm
06:00 PM 69.5°F20.8°C 69.2°F20.7°C 99% 2.3 mph SSW3.7 kmh SSW 2.3 mph3.7 kmh 31.86 in1078.9 mb - 0.00 in0.0 mm 0.01 in0.3 mm
06:10 PM 70.3°F21.3°C 70.0°F21.1°C 99% Calm Calm 2.3 mph3.7 kmh 31.86 in1078.9 mb - 0.00 in0.0 mm 0.01 in0.3 mm
06:15 PM 70.4°F21.3°C 70.1°F21.2°C 99% 1.2 mph S1.9 kmh S 2.3 mph3.7 kmh 31.86 in1078.9 mb - 0.00 in0.0 mm 0.01 in0.3 mm
06:20 PM 70.2°F21.2°C 69.9°F21.1°C 99% 2.3 mph SE3.7 kmh SE 3.5 mph5.6 kmh 31.86 in1078.9 mb - 0.00 in0.0 mm 0.01 in0.3 mm
06:25 PM 69.6°F20.9°C 69.3°F20.7°C 99% 3.5 mph SSW5.6 kmh SSW 3.5 mph5.6 kmh 31.86 in1078.9 mb - 0.00 in0.0 mm 0.01 in0.3 mm
06:30 PM 69.5°F20.8°C 69.2°F20.7°C 99% 2.3 mph SSE3.7 kmh SSE 3.5 mph5.6 kmh 31.86 in1078.9 mb - 0.00 in0.0 mm 0.01 in0.3 mm
06:35 PM 69.8°F21.0°C 69.5°F20.8°C 99% 2.3 mph SSE3.7 kmh SSE 2.3 mph3.7 kmh 31.86 in1078.9 mb - 0.00 in0.0 mm 0.01 in0.3 mm
06:40 PM 69.8°F21.0°C 69.6°F20.9°C 99% 1.2 mph SE1.9 kmh SE 3.5 mph5.6 kmh 31.86 in1078.9 mb - 0.00 in0.0 mm 0.01 in0.3 mm
06:45 PM 69.8°F21.0°C 69.5°F20.8°C 99% 2.3 mph S3.7 kmh S 3.5 mph5.6 kmh 31.86 in1078.9 mb - 0.00 in0.0 mm 0.01 in0.3 mm
06:50 PM 69.5°F20.8°C 69.2°F20.7°C 99% 3.5 mph S5.6 kmh S 4.6 mph7.4 kmh 31.86 in1078.9 mb - 0.00 in0.0 mm 0.01 in0.3 mm
06:55 PM 69.5°F20.8°C 69.2°F20.7°C 99% 2.3 mph SSW3.7 kmh SSW 4.6 mph7.4 kmh 31.86 in1078.9 mb - 0.00 in0.0 mm 0.01 in0.3 mm
07:00 PM 69.5°F20.8°C 69.2°F20.7°C 99% 2.3 mph S3.7 kmh S 2.3 mph3.7 kmh 31.86 in1078.9 mb - 0.00 in0.0 mm 0.01 in0.3 mm
07:10 PM 69.6°F20.9°C 69.3°F20.7°C 99% 1.2 mph SSE1.9 kmh SSE 2.3 mph3.7 kmh 31.86 in1078.9 mb - 0.00 in0.0 mm 0.01 in0.3 mm
07:15 PM 69.6°F20.9°C 69.3°F20.7°C 99% 2.3 mph S3.7 kmh S 4.6 mph7.4 kmh 31.86 in1078.9 mb - 0.00 in0.0 mm 0.01 in0.3 mm
07:20 PM 69.6°F20.9°C 69.3°F20.7°C 99% 2.3 mph S3.7 kmh S 2.3 mph3.7 kmh 31.86 in1078.9 mb - 0.00 in0.0 mm 0.01 in0.3 mm
07:25 PM 69.6°F20.9°C 69.3°F20.7°C 99% 2.3 mph S3.7 kmh S 3.5 mph5.6 kmh 31.86 in1078.9 mb - 0.00 in0.0 mm 0.01 in0.3 mm
07:30 PM 69.6°F20.9°C 69.3°F20.7°C 99% 4.6 mph SE7.4 kmh SE 4.6 mph7.4 kmh 31.86 in1078.9 mb - 0.00 in0.0 mm 0.01 in0.3 mm
07:35 PM 69.5°F20.8°C 69.2°F20.7°C 99% 4.6 mph S7.4 kmh S 5.8 mph9.3 kmh 31.86 in1078.9 mb - 0.00 in0.0 mm 0.01 in0.3 mm
07:40 PM 69.3°F20.7°C 69.0°F20.6°C 99% 4.6 mph S7.4 kmh S 5.8 mph9.3 kmh 31.86 in1078.9 mb - 0.00 in0.0 mm 0.01 in0.3 mm
07:45 PM 69.4°F20.8°C 69.1°F20.6°C 99% 2.3 mph S3.7 kmh S 2.3 mph3.7 kmh 31.86 in1078.9 mb - 0.00 in0.0 mm 0.01 in0.3 mm
07:50 PM 69.5°F20.8°C 69.2°F20.7°C 99% 3.5 mph SE5.6 kmh SE 3.5 mph5.6 kmh 31.86 in1078.9 mb - 0.00 in0.0 mm 0.01 in0.3 mm
07:55 PM 69.3°F20.7°C 69.0°F20.6°C 99% 2.3 mph SE3.7 kmh SE 3.5 mph5.6 kmh 31.86 in1078.9 mb - 0.00 in0.0 mm 0.01 in0.3 mm
08:00 PM 69.3°F20.7°C 69.0°F20.6°C 99% 2.3 mph S3.7 kmh S 3.5 mph5.6 kmh 31.86 in1078.9 mb - 0.00 in0.0 mm 0.01 in0.3 mm
08:10 PM 69.3°F20.7°C 69.0°F20.6°C 99% 1.2 mph S1.9 kmh S 1.2 mph1.9 kmh 31.86 in1078.9 mb - 0.00 in0.0 mm 0.01 in0.3 mm
08:15 PM 69.3°F20.7°C 69.0°F20.6°C 99% Calm Calm -- 31.86 in1078.9 mb - 0.00 in0.0 mm 0.01 in0.3 mm
08:20 PM 69.3°F20.7°C 69.0°F20.6°C 99% Calm Calm 1.2 mph1.9 kmh 31.86 in1078.9 mb - 0.00 in0.0 mm 0.01 in0.3 mm
08:25 PM 69.1°F20.6°C 68.8°F20.4°C 99% 1.2 mph SSE1.9 kmh SSE 2.3 mph3.7 kmh 31.86 in1078.9 mb - 0.00 in0.0 mm 0.01 in0.3 mm
08:30 PM 68.9°F20.5°C 68.6°F20.3°C 99% 1.2 mph ESE1.9 kmh ESE 1.2 mph1.9 kmh 31.86 in1078.9 mb - 0.00 in0.0 mm 0.01 in0.3 mm
08:35 PM 68.7°F20.4°C 68.4°F20.2°C 99% 2.3 mph S3.7 kmh S 3.5 mph5.6 kmh 31.86 in1078.9 mb - 0.00 in0.0 mm 0.01 in0.3 mm
08:40 PM 68.7°F20.4°C 68.4°F20.2°C 99% 3.5 mph SSE5.6 kmh SSE 3.5 mph5.6 kmh 31.86 in1078.9 mb - 0.00 in0.0 mm 0.01 in0.3 mm
08:45 PM 68.6°F20.3°C 68.3°F20.2°C 99% 2.3 mph S3.7 kmh S 4.6 mph7.4 kmh 31.86 in1078.9 mb - 0.00 in0.0 mm 0.01 in0.3 mm
08:50 PM 68.4°F20.2°C 68.1°F20.1°C 99% 3.5 mph SSE5.6 kmh SSE 3.5 mph5.6 kmh 31.86 in1078.9 mb - 0.00 in0.0 mm 0.01 in0.3 mm
08:55 PM 68.4°F20.2°C 68.1°F20.1°C 99% 1.2 mph SSE1.9 kmh SSE 1.2 mph1.9 kmh 31.86 in1078.9 mb - 0.00 in0.0 mm 0.01 in0.3 mm
09:00 PM 68.4°F20.2°C 68.1°F20.1°C 99% 2.3 mph S3.7 kmh S 2.3 mph3.7 kmh 31.86 in1078.9 mb - 0.00 in0.0 mm 0.01 in0.3 mm
09:10 PM 68.4°F20.2°C 68.1°F20.1°C 99% 1.2 mph SE1.9 kmh SE -- 31.86 in1078.9 mb - 0.00 in0.0 mm 0.01 in0.3 mm
09:15 PM 68.4°F20.2°C 68.1°F20.1°C 99% 1.2 mph S1.9 kmh S 2.3 mph3.7 kmh 31.86 in1078.9 mb - 0.00 in0.0 mm 0.01 in0.3 mm
09:20 PM 68.4°F20.2°C 68.1°F20.1°C 99% 2.3 mph SSE3.7 kmh SSE 3.5 mph5.6 kmh 31.86 in1078.9 mb - 0.00 in0.0 mm 0.01 in0.3 mm
09:25 PM 68.4°F20.2°C 68.1°F20.1°C 99% 2.3 mph SSW3.7 kmh SSW 3.5 mph5.6 kmh 31.86 in1078.9 mb - 0.00 in0.0 mm 0.01 in0.3 mm
09:30 PM 68.2°F20.1°C 67.9°F19.9°C 99% 2.3 mph S3.7 kmh S 4.6 mph7.4 kmh 31.86 in1078.9 mb - 0.00 in0.0 mm 0.01 in0.3 mm
09:35 PM 68.2°F20.1°C 67.9°F19.9°C 99% 2.3 mph S3.7 kmh S 3.5 mph5.6 kmh 31.86 in1078.9 mb - 0.00 in0.0 mm 0.01 in0.3 mm
09:40 PM 68.2°F20.1°C 67.9°F19.9°C 99% 1.2 mph SE1.9 kmh SE 2.3 mph3.7 kmh 31.86 in1078.9 mb - 0.00 in0.0 mm 0.01 in0.3 mm
09:45 PM 68.2°F20.1°C 67.9°F19.9°C 99% Calm Calm 1.2 mph1.9 kmh 31.86 in1078.9 mb - 0.00 in0.0 mm 0.01 in0.3 mm
09:50 PM 68.2°F20.1°C 67.9°F19.9°C 99% Calm Calm -- 31.86 in1078.9 mb - 0.00 in0.0 mm 0.01 in0.3 mm
09:55 PM 68.2°F20.1°C 67.9°F19.9°C 99% Calm Calm 1.2 mph1.9 kmh 31.86 in1078.9 mb - 0.00 in0.0 mm 0.01 in0.3 mm
10:00 PM 68.2°F20.1°C 67.9°F19.9°C 99% Calm Calm -- 31.86 in1078.9 mb - 0.00 in0.0 mm 0.01 in0.3 mm
10:10 PM 68.2°F20.1°C 67.9°F19.9°C 99% 2.3 mph S3.7 kmh S 3.5 mph5.6 kmh 31.86 in1078.9 mb - 0.00 in0.0 mm 0.01 in0.3 mm
10:15 PM 68.2°F20.1°C 67.9°F19.9°C 99% Calm Calm 2.3 mph3.7 kmh 31.86 in1078.9 mb - 0.00 in0.0 mm 0.01 in0.3 mm
10:20 PM 68.2°F20.1°C 67.9°F19.9°C 99% Calm Calm -- 31.86 in1078.9 mb - 0.00 in0.0 mm 0.01 in0.3 mm
10:25 PM 68.2°F20.1°C 67.9°F19.9°C 99% Calm Calm -- 31.86 in1078.9 mb - 0.00 in0.0 mm 0.01 in0.3 mm
10:30 PM 68.2°F20.1°C 67.9°F19.9°C 99% Calm Calm -- 31.86 in1078.9 mb - 0.00 in0.0 mm 0.01 in0.3 mm
10:35 PM 68.2°F20.1°C 67.9°F19.9°C 99% Calm Calm -- 31.86 in1078.9 mb - 0.00 in0.0 mm 0.01 in0.3 mm
10:40 PM 68.1°F20.1°C 67.8°F19.9°C 99% Calm Calm -- 31.86 in1078.9 mb - 0.00 in0.0 mm 0.01 in0.3 mm
10:45 PM 68.0°F20.0°C 67.7°F19.8°C 99% Calm Calm -- 31.86 in1078.9 mb - 0.00 in0.0 mm 0.01 in0.3 mm
10:50 PM 68.0°F20.0°C 67.7°F19.8°C 99% 1.2 mph ESE1.9 kmh ESE 2.3 mph3.7 kmh 31.86 in1078.9 mb - 0.00 in0.0 mm 0.01 in0.3 mm
10:55 PM 68.0°F20.0°C 67.7°F19.8°C 99% Calm Calm -- 31.86 in1078.9 mb - 0.00 in0.0 mm 0.01 in0.3 mm
11:00 PM 68.0°F20.0°C 67.7°F19.8°C 99% Calm Calm -- 31.86 in1078.9 mb - 0.00 in0.0 mm 0.01 in0.3 mm
11:10 PM 68.0°F20.0°C 67.7°F19.8°C 99% Calm Calm -- 31.86 in1078.9 mb - 0.00 in0.0 mm 0.01 in0.3 mm
11:15 PM 68.0°F20.0°C 67.7°F19.8°C 99% Calm Calm 1.2 mph1.9 kmh 31.86 in1078.9 mb - 0.00 in0.0 mm 0.01 in0.3 mm
11:20 PM 68.0°F20.0°C 67.7°F19.8°C 99% 1.2 mph SSE1.9 kmh SSE 2.3 mph3.7 kmh 31.86 in1078.9 mb - 0.00 in0.0 mm 0.01 in0.3 mm
11:25 PM 68.0°F20.0°C 67.7°F19.8°C 99% 1.2 mph ENE1.9 kmh ENE 1.2 mph1.9 kmh 31.86 in1078.9 mb - 0.00 in0.0 mm 0.01 in0.3 mm
11:30 PM 68.0°F20.0°C 67.7°F19.8°C 99% Calm Calm 1.2 mph1.9 kmh 31.86 in1078.9 mb - 0.00 in0.0 mm 0.01 in0.3 mm
11:35 PM 68.0°F20.0°C 67.7°F19.8°C 99% Calm Calm -- 31.86 in1078.9 mb - 0.00 in0.0 mm 0.01 in0.3 mm
11:40 PM 68.2°F20.1°C 67.9°F19.9°C 99% 1.2 mph ESE1.9 kmh ESE 1.2 mph1.9 kmh 31.86 in1078.9 mb - 0.00 in0.0 mm 0.01 in0.3 mm
11:45 PM 68.2°F20.1°C 67.9°F19.9°C 99% Calm Calm -- 31.86 in1078.9 mb - 0.00 in0.0 mm 0.01 in0.3 mm
11:50 PM 68.2°F20.1°C 67.9°F19.9°C 99% Calm Calm 1.2 mph1.9 kmh 31.86 in1078.9 mb - 0.00 in0.0 mm 0.01 in0.3 mm
11:55 PM 68.2°F20.1°C 67.9°F19.9°C 99% Calm Calm -- 31.86 in1078.9 mb - 0.01 in0.3 mm 0.02 in0.5 mm